sensor_id;sensor_type;location;lat;lon;timestamp;P1;durP1;ratioP1;P2;durP2;ratioP2
46348;SDS011;32057;47.830;19.046;2022-12-28T00:00:27;6.85;;;2.58;;
46348;SDS011;32057;47.830;19.046;2022-12-28T00:02:52;2.65;;;2.42;;
46348;SDS011;32057;47.830;19.046;2022-12-28T00:05:20;2.42;;;2.03;;
46348;SDS011;32057;47.830;19.046;2022-12-28T00:07:45;3.15;;;1.85;;
46348;SDS011;32057;47.830;19.046;2022-12-28T00:10:11;5.88;;;2.42;;
46348;SDS011;32057;47.830;19.046;2022-12-28T00:12:36;1.38;;;1.25;;
46348;SDS011;32057;47.830;19.046;2022-12-28T00:15:02;0.95;;;0.95;;
46348;SDS011;32057;47.830;19.046;2022-12-28T00:17:27;1.35;;;1.30;;
46348;SDS011;32057;47.830;19.046;2022-12-28T00:19:53;3.05;;;1.80;;
46348;SDS011;32057;47.830;19.046;2022-12-28T00:22:18;2.92;;;2.25;;
46348;SDS011;32057;47.830;19.046;2022-12-28T00:24:44;5.25;;;3.45;;
46348;SDS011;32057;47.830;19.046;2022-12-28T00:27:09;1.33;;;1.23;;
46348;SDS011;32057;47.830;19.046;2022-12-28T00:29:34;2.75;;;1.80;;
46348;SDS011;32057;47.830;19.046;2022-12-28T00:32:00;5.05;;;1.95;;
46348;SDS011;32057;47.830;19.046;2022-12-28T00:34:25;1.15;;;1.15;;
46348;SDS011;32057;47.830;19.046;2022-12-28T00:36:51;1.77;;;1.67;;
46348;SDS011;32057;47.830;19.046;2022-12-28T00:39:17;2.35;;;1.48;;
46348;SDS011;32057;47.830;19.046;2022-12-28T00:41:43;1.65;;;1.30;;
46348;SDS011;32057;47.830;19.046;2022-12-28T00:44:08;3.13;;;1.38;;
46348;SDS011;32057;47.830;19.046;2022-12-28T00:46:34;2.85;;;1.13;;
46348;SDS011;32057;47.830;19.046;2022-12-28T00:48:59;6.03;;;2.63;;
46348;SDS011;32057;47.830;19.046;2022-12-28T00:51:25;3.85;;;2.45;;
46348;SDS011;32057;47.830;19.046;2022-12-28T00:53:50;1.60;;;1.50;;
46348;SDS011;32057;47.830;19.046;2022-12-28T00:56:17;6.13;;;1.70;;
46348;SDS011;32057;47.830;19.046;2022-12-28T00:58:44;3.20;;;1.65;;
46348;SDS011;32057;47.830;19.046;2022-12-28T01:01:11;0.75;;;0.75;;
46348;SDS011;32057;47.830;19.046;2022-12-28T01:03:38;3.80;;;1.58;;
46348;SDS011;32057;47.830;19.046;2022-12-28T01:06:07;1.65;;;1.23;;
46348;SDS011;32057;47.830;19.046;2022-12-28T01:08:37;1.15;;;0.90;;
46348;SDS011;32057;47.830;19.046;2022-12-28T01:11:07;4.43;;;2.15;;
46348;SDS011;32057;47.830;19.046;2022-12-28T01:13:34;2.28;;;1.92;;
46348;SDS011;32057;47.830;19.046;2022-12-28T01:16:00;1.73;;;1.63;;
46348;SDS011;32057;47.830;19.046;2022-12-28T01:18:25;3.70;;;1.95;;
46348;SDS011;32057;47.830;19.046;2022-12-28T01:20:50;4.07;;;1.80;;
46348;SDS011;32057;47.830;19.046;2022-12-28T01:23:16;3.85;;;1.75;;
46348;SDS011;32057;47.830;19.046;2022-12-28T01:25:41;3.83;;;1.17;;
46348;SDS011;32057;47.830;19.046;2022-12-28T01:28:07;3.65;;;1.42;;
46348;SDS011;32057;47.830;19.046;2022-12-28T01:30:32;1.38;;;1.25;;
46348;SDS011;32057;47.830;19.046;2022-12-28T01:32:58;3.22;;;1.58;;
46348;SDS011;32057;47.830;19.046;2022-12-28T01:35:23;3.35;;;1.10;;
46348;SDS011;32057;47.830;19.046;2022-12-28T01:37:49;2.13;;;1.63;;
46348;SDS011;32057;47.830;19.046;2022-12-28T01:40:14;2.78;;;2.28;;
46348;SDS011;32057;47.830;19.046;2022-12-28T01:42:40;1.55;;;1.15;;
46348;SDS011;32057;47.830;19.046;2022-12-28T01:45:12;1.50;;;1.02;;
46348;SDS011;32057;47.830;19.046;2022-12-28T01:47:41;1.55;;;0.55;;
46348;SDS011;32057;47.830;19.046;2022-12-28T01:50:11;1.23;;;1.15;;
46348;SDS011;32057;47.830;19.046;2022-12-28T01:55:19;1.35;;;1.30;;
46348;SDS011;32057;47.830;19.046;2022-12-28T01:57:59;1.17;;;1.13;;
46348;SDS011;32057;47.830;19.046;2022-12-28T02:00:29;1.83;;;1.63;;
46348;SDS011;32057;47.830;19.046;2022-12-28T02:05:35;1.17;;;1.08;;
46348;SDS011;32057;47.830;19.046;2022-12-28T02:08:04;1.70;;;1.58;;
46348;SDS011;32057;47.830;19.046;2022-12-28T02:10:47;1.15;;;1.15;;
46348;SDS011;32057;47.830;19.046;2022-12-28T02:13:15;3.22;;;1.35;;
46348;SDS011;32057;47.830;19.046;2022-12-28T02:15:42;1.83;;;1.10;;
46348;SDS011;32057;47.830;19.046;2022-12-28T02:18:09;1.48;;;1.38;;
46348;SDS011;32057;47.830;19.046;2022-12-28T02:26:42;1.42;;;0.95;;
46348;SDS011;32057;47.830;19.046;2022-12-28T02:38:20;2.67;;;1.35;;
46348;SDS011;32057;47.830;19.046;2022-12-28T02:41:00;5.05;;;2.45;;
46348;SDS011;32057;47.830;19.046;2022-12-28T02:43:30;0.85;;;0.85;;
46348;SDS011;32057;47.830;19.046;2022-12-28T02:46:07;1.13;;;1.13;;
46348;SDS011;32057;47.830;19.046;2022-12-28T02:48:51;1.70;;;1.20;;
46348;SDS011;32057;47.830;19.046;2022-12-28T02:51:50;2.33;;;1.52;;
46348;SDS011;32057;47.830;19.046;2022-12-28T03:00:14;1.02;;;1.02;;
46348;SDS011;32057;47.830;19.046;2022-12-28T03:08:28;2.00;;;1.63;;
46348;SDS011;32057;47.830;19.046;2022-12-28T03:11:22;1.02;;;0.77;;
46348;SDS011;32057;47.830;19.046;2022-12-28T03:14:02;0.38;;;0.38;;
46348;SDS011;32057;47.830;19.046;2022-12-28T03:16:34;1.05;;;1.05;;
46348;SDS011;32057;47.830;19.046;2022-12-28T03:19:26;0.77;;;0.77;;
46348;SDS011;32057;47.830;19.046;2022-12-28T03:22:13;1.50;;;1.13;;
46348;SDS011;32057;47.830;19.046;2022-12-28T03:24:58;1.40;;;1.10;;
46348;SDS011;32057;47.830;19.046;2022-12-28T03:27:46;2.60;;;1.75;;
46348;SDS011;32057;47.830;19.046;2022-12-28T03:30:32;0.57;;;0.57;;
46348;SDS011;32057;47.830;19.046;2022-12-28T03:33:20;1.30;;;1.10;;
46348;SDS011;32057;47.830;19.046;2022-12-28T03:35:51;0.85;;;0.85;;
46348;SDS011;32057;47.830;19.046;2022-12-28T03:38:30;2.50;;;1.92;;
46348;SDS011;32057;47.830;19.046;2022-12-28T03:41:22;1.83;;;1.73;;
46348;SDS011;32057;47.830;19.046;2022-12-28T03:43:59;2.15;;;1.38;;
46348;SDS011;32057;47.830;19.046;2022-12-28T03:46:35;0.35;;;0.32;;
46348;SDS011;32057;47.830;19.046;2022-12-28T03:49:08;1.00;;;0.47;;
46348;SDS011;32057;47.830;19.046;2022-12-28T03:51:34;0.65;;;0.65;;
46348;SDS011;32057;47.830;19.046;2022-12-28T03:54:00;0.90;;;0.90;;
46348;SDS011;32057;47.830;19.046;2022-12-28T03:56:26;1.75;;;1.42;;
46348;SDS011;32057;47.830;19.046;2022-12-28T03:58:52;0.45;;;0.45;;
46348;SDS011;32057;47.830;19.046;2022-12-28T04:01:18;0.77;;;0.77;;
46348;SDS011;32057;47.830;19.046;2022-12-28T04:03:44;1.13;;;0.65;;
46348;SDS011;32057;47.830;19.046;2022-12-28T04:06:11;1.88;;;1.33;;
46348;SDS011;32057;47.830;19.046;2022-12-28T04:08:40;0.70;;;0.70;;
46348;SDS011;32057;47.830;19.046;2022-12-28T04:11:05;1.00;;;0.75;;
46348;SDS011;32057;47.830;19.046;2022-12-28T04:13:31;2.90;;;1.63;;
46348;SDS011;32057;47.830;19.046;2022-12-28T04:15:57;0.20;;;0.20;;
46348;SDS011;32057;47.830;19.046;2022-12-28T04:18:24;1.25;;;1.15;;
46348;SDS011;32057;47.830;19.046;2022-12-28T04:20:49;2.15;;;1.95;;
46348;SDS011;32057;47.830;19.046;2022-12-28T04:23:15;0.68;;;0.68;;
46348;SDS011;32057;47.830;19.046;2022-12-28T04:25:40;1.10;;;1.10;;
46348;SDS011;32057;47.830;19.046;2022-12-28T04:28:06;1.27;;;1.17;;
46348;SDS011;32057;47.830;19.046;2022-12-28T04:30:31;1.05;;;0.77;;
46348;SDS011;32057;47.830;19.046;2022-12-28T04:32:56;2.50;;;1.63;;
46348;SDS011;32057;47.830;19.046;2022-12-28T04:35:22;1.52;;;1.42;;
46348;SDS011;32057;47.830;19.046;2022-12-28T04:37:47;2.05;;;1.40;;
46348;SDS011;32057;47.830;19.046;2022-12-28T04:40:13;0.93;;;0.68;;
46348;SDS011;32057;47.830;19.046;2022-12-28T04:42:38;0.95;;;0.95;;
46348;SDS011;32057;47.830;19.046;2022-12-28T04:45:04;2.05;;;1.30;;
46348;SDS011;32057;47.830;19.046;2022-12-28T04:47:29;2.00;;;1.08;;
46348;SDS011;32057;47.830;19.046;2022-12-28T04:49:55;1.15;;;1.05;;
46348;SDS011;32057;47.830;19.046;2022-12-28T04:52:20;1.27;;;0.90;;
46348;SDS011;32057;47.830;19.046;2022-12-28T04:54:46;1.90;;;1.80;;
46348;SDS011;32057;47.830;19.046;2022-12-28T04:57:12;2.63;;;1.08;;
46348;SDS011;32057;47.830;19.046;2022-12-28T04:59:37;1.50;;;1.40;;
46348;SDS011;32057;47.830;19.046;2022-12-28T05:02:04;1.08;;;1.08;;
46348;SDS011;32057;47.830;19.046;2022-12-28T05:04:30;2.38;;;2.28;;
46348;SDS011;32057;47.830;19.046;2022-12-28T05:06:56;12.57;;;0.90;;
46348;SDS011;32057;47.830;19.046;2022-12-28T05:09:21;1.67;;;1.58;;
46348;SDS011;32057;47.830;19.046;2022-12-28T05:11:47;0.57;;;0.57;;
46348;SDS011;32057;47.830;19.046;2022-12-28T05:14:12;2.38;;;1.40;;
46348;SDS011;32057;47.830;19.046;2022-12-28T05:16:38;2.05;;;1.40;;
46348;SDS011;32057;47.830;19.046;2022-12-28T05:19:03;0.90;;;0.90;;
46348;SDS011;32057;47.830;19.046;2022-12-28T05:21:28;1.45;;;1.35;;
46348;SDS011;32057;47.830;19.046;2022-12-28T05:23:54;0.63;;;0.63;;
46348;SDS011;32057;47.830;19.046;2022-12-28T05:26:21;0.95;;;0.80;;
46348;SDS011;32057;47.830;19.046;2022-12-28T05:28:49;0.73;;;0.73;;
46348;SDS011;32057;47.830;19.046;2022-12-28T05:31:19;1.02;;;0.95;;
46348;SDS011;32057;47.830;19.046;2022-12-28T05:33:45;0.80;;;0.80;;
46348;SDS011;32057;47.830;19.046;2022-12-28T05:36:15;0.68;;;0.68;;
46348;SDS011;32057;47.830;19.046;2022-12-28T05:38:46;2.80;;;0.88;;
46348;SDS011;32057;47.830;19.046;2022-12-28T05:41:13;0.82;;;0.82;;
46348;SDS011;32057;47.830;19.046;2022-12-28T05:43:41;1.38;;;1.27;;
46348;SDS011;32057;47.830;19.046;2022-12-28T05:46:07;1.48;;;1.33;;
46348;SDS011;32057;47.830;19.046;2022-12-28T05:48:35;3.53;;;1.25;;
46348;SDS011;32057;47.830;19.046;2022-12-28T05:51:03;4.18;;;1.00;;
46348;SDS011;32057;47.830;19.046;2022-12-28T05:53:30;0.90;;;0.82;;
46348;SDS011;32057;47.830;19.046;2022-12-28T05:56:03;3.88;;;3.50;;
46348;SDS011;32057;47.830;19.046;2022-12-28T05:58:30;1.70;;;1.60;;
46348;SDS011;32057;47.830;19.046;2022-12-28T06:01:15;1.85;;;1.10;;
46348;SDS011;32057;47.830;19.046;2022-12-28T06:03:43;0.50;;;0.50;;
46348;SDS011;32057;47.830;19.046;2022-12-28T06:06:13;1.27;;;1.27;;
46348;SDS011;32057;47.830;19.046;2022-12-28T06:08:43;3.30;;;1.63;;
46348;SDS011;32057;47.830;19.046;2022-12-28T06:11:11;1.48;;;1.05;;
46348;SDS011;32057;47.830;19.046;2022-12-28T06:13:39;1.45;;;1.35;;
46348;SDS011;32057;47.830;19.046;2022-12-28T06:16:08;1.80;;;0.93;;
46348;SDS011;32057;47.830;19.046;2022-12-28T06:18:39;2.22;;;0.75;;
46348;SDS011;32057;47.830;19.046;2022-12-28T06:21:26;3.20;;;1.27;;
46348;SDS011;32057;47.830;19.046;2022-12-28T06:23:53;1.42;;;1.33;;
46348;SDS011;32057;47.830;19.046;2022-12-28T06:26:19;1.65;;;1.05;;
46348;SDS011;32057;47.830;19.046;2022-12-28T06:28:46;1.75;;;1.65;;
46348;SDS011;32057;47.830;19.046;2022-12-28T06:31:16;0.65;;;0.50;;
46348;SDS011;32057;47.830;19.046;2022-12-28T06:33:46;2.13;;;1.77;;
46348;SDS011;32057;47.830;19.046;2022-12-28T06:36:14;0.68;;;0.35;;
46348;SDS011;32057;47.830;19.046;2022-12-28T06:38:41;1.63;;;1.52;;
46348;SDS011;32057;47.830;19.046;2022-12-28T06:41:08;3.45;;;2.55;;
46348;SDS011;32057;47.830;19.046;2022-12-28T06:43:36;3.33;;;1.60;;
46348;SDS011;32057;47.830;19.046;2022-12-28T06:46:03;2.15;;;1.58;;
46348;SDS011;32057;47.830;19.046;2022-12-28T06:48:29;1.70;;;1.60;;
46348;SDS011;32057;47.830;19.046;2022-12-28T06:51:06;1.42;;;1.33;;
46348;SDS011;32057;47.830;19.046;2022-12-28T06:53:35;3.45;;;1.90;;
46348;SDS011;32057;47.830;19.046;2022-12-28T06:56:03;2.33;;;2.03;;
46348;SDS011;32057;47.830;19.046;2022-12-28T06:58:30;1.10;;;1.10;;
46348;SDS011;32057;47.830;19.046;2022-12-28T07:00:56;2.20;;;1.52;;
46348;SDS011;32057;47.830;19.046;2022-12-28T07:03:29;2.72;;;2.03;;
46348;SDS011;32057;47.830;19.046;2022-12-28T07:05:54;2.20;;;1.48;;
46348;SDS011;32057;47.830;19.046;2022-12-28T07:08:24;1.17;;;1.10;;
46348;SDS011;32057;47.830;19.046;2022-12-28T07:10:49;4.43;;;2.22;;
46348;SDS011;32057;47.830;19.046;2022-12-28T07:13:14;1.30;;;1.30;;
46348;SDS011;32057;47.830;19.046;2022-12-28T07:15:40;1.17;;;0.90;;
46348;SDS011;32057;47.830;19.046;2022-12-28T07:18:06;3.60;;;1.52;;
46348;SDS011;32057;47.830;19.046;2022-12-28T07:20:32;5.70;;;3.13;;
46348;SDS011;32057;47.830;19.046;2022-12-28T07:22:57;1.65;;;1.55;;
46348;SDS011;32057;47.830;19.046;2022-12-28T07:25:23;1.88;;;1.77;;
46348;SDS011;32057;47.830;19.046;2022-12-28T07:27:48;1.63;;;1.50;;
46348;SDS011;32057;47.830;19.046;2022-12-28T07:30:14;2.13;;;1.35;;
46348;SDS011;32057;47.830;19.046;2022-12-28T07:32:39;2.88;;;1.98;;
46348;SDS011;32057;47.830;19.046;2022-12-28T07:35:05;2.95;;;1.88;;
46348;SDS011;32057;47.830;19.046;2022-12-28T07:37:31;2.95;;;2.05;;
46348;SDS011;32057;47.830;19.046;2022-12-28T07:39:56;5.10;;;1.95;;
46348;SDS011;32057;47.830;19.046;2022-12-28T07:42:22;2.35;;;2.15;;
46348;SDS011;32057;47.830;19.046;2022-12-28T07:44:47;1.98;;;1.67;;
46348;SDS011;32057;47.830;19.046;2022-12-28T07:47:13;3.50;;;2.03;;
46348;SDS011;32057;47.830;19.046;2022-12-28T07:49:39;3.08;;;2.72;;
46348;SDS011;32057;47.830;19.046;2022-12-28T07:52:04;1.10;;;1.00;;
46348;SDS011;32057;47.830;19.046;2022-12-28T07:54:30;1.90;;;1.80;;
46348;SDS011;32057;47.830;19.046;2022-12-28T07:56:55;1.95;;;1.85;;
46348;SDS011;32057;47.830;19.046;2022-12-28T07:59:21;3.60;;;2.42;;
46348;SDS011;32057;47.830;19.046;2022-12-28T08:01:48;2.58;;;2.10;;
46348;SDS011;32057;47.830;19.046;2022-12-28T08:04:14;4.53;;;2.47;;
46348;SDS011;32057;47.830;19.046;2022-12-28T08:06:41;5.25;;;2.42;;
46348;SDS011;32057;47.830;19.046;2022-12-28T08:09:08;5.00;;;4.40;;
46348;SDS011;32057;47.830;19.046;2022-12-28T08:11:35;3.42;;;3.15;;
46348;SDS011;32057;47.830;19.046;2022-12-28T08:14:02;4.88;;;3.42;;
46348;SDS011;32057;47.830;19.046;2022-12-28T08:16:30;4.13;;;3.63;;
46348;SDS011;32057;47.830;19.046;2022-12-28T08:18:57;6.43;;;2.75;;
46348;SDS011;32057;47.830;19.046;2022-12-28T08:23:56;3.05;;;1.83;;
46348;SDS011;32057;47.830;19.046;2022-12-28T08:26:26;4.15;;;2.83;;
46348;SDS011;32057;47.830;19.046;2022-12-28T08:28:57;11.23;;;4.25;;
46348;SDS011;32057;47.830;19.046;2022-12-28T08:31:26;3.08;;;2.85;;
46348;SDS011;32057;47.830;19.046;2022-12-28T08:33:53;10.13;;;3.78;;
46348;SDS011;32057;47.830;19.046;2022-12-28T08:36:20;4.18;;;3.67;;
46348;SDS011;32057;47.830;19.046;2022-12-28T08:38:46;4.38;;;3.40;;
46348;SDS011;32057;47.830;19.046;2022-12-28T08:41:16;4.75;;;3.75;;
46348;SDS011;32057;47.830;19.046;2022-12-28T08:43:44;4.95;;;3.78;;
46348;SDS011;32057;47.830;19.046;2022-12-28T08:46:19;4.10;;;2.67;;
46348;SDS011;32057;47.830;19.046;2022-12-28T08:48:46;4.13;;;3.70;;
46348;SDS011;32057;47.830;19.046;2022-12-28T08:51:16;4.50;;;2.58;;
46348;SDS011;32057;47.830;19.046;2022-12-28T08:53:43;4.70;;;2.97;;
46348;SDS011;32057;47.830;19.046;2022-12-28T08:56:10;6.53;;;3.92;;
46348;SDS011;32057;47.830;19.046;2022-12-28T08:58:41;4.82;;;4.28;;
46348;SDS011;32057;47.830;19.046;2022-12-28T09:01:08;3.30;;;2.88;;
46348;SDS011;32057;47.830;19.046;2022-12-28T09:03:36;6.90;;;3.15;;
46348;SDS011;32057;47.830;19.046;2022-12-28T09:06:06;6.43;;;3.95;;
46348;SDS011;32057;47.830;19.046;2022-12-28T09:08:34;6.07;;;4.38;;
46348;SDS011;32057;47.830;19.046;2022-12-28T09:11:00;4.05;;;3.75;;
46348;SDS011;32057;47.830;19.046;2022-12-28T09:13:27;5.47;;;3.55;;
46348;SDS011;32057;47.830;19.046;2022-12-28T09:15:57;6.28;;;4.80;;
46348;SDS011;32057;47.830;19.046;2022-12-28T09:18:24;4.18;;;3.72;;
46348;SDS011;32057;47.830;19.046;2022-12-28T09:20:49;7.65;;;5.03;;
46348;SDS011;32057;47.830;19.046;2022-12-28T09:23:14;5.10;;;3.58;;
46348;SDS011;32057;47.830;19.046;2022-12-28T09:25:40;9.18;;;4.15;;
46348;SDS011;32057;47.830;19.046;2022-12-28T09:28:05;6.97;;;4.30;;
46348;SDS011;32057;47.830;19.046;2022-12-28T09:30:30;6.45;;;4.60;;
46348;SDS011;32057;47.830;19.046;2022-12-28T09:32:56;5.43;;;3.78;;
46348;SDS011;32057;47.830;19.046;2022-12-28T09:35:41;4.78;;;4.00;;
46348;SDS011;32057;47.830;19.046;2022-12-28T09:38:06;9.18;;;4.65;;
46348;SDS011;32057;47.830;19.046;2022-12-28T09:40:35;3.65;;;2.63;;
46348;SDS011;32057;47.830;19.046;2022-12-28T09:43:02;4.00;;;3.35;;
46348;SDS011;32057;47.830;19.046;2022-12-28T09:45:29;4.88;;;4.22;;
46348;SDS011;32057;47.830;19.046;2022-12-28T09:47:57;5.95;;;3.63;;
46348;SDS011;32057;47.830;19.046;2022-12-28T09:50:29;7.00;;;4.22;;
46348;SDS011;32057;47.830;19.046;2022-12-28T09:55:31;6.10;;;5.57;;
46348;SDS011;32057;47.830;19.046;2022-12-28T09:58:05;6.70;;;4.25;;
46348;SDS011;32057;47.830;19.046;2022-12-28T10:00:42;14.05;;;5.90;;
46348;SDS011;32057;47.830;19.046;2022-12-28T10:05:50;11.50;;;6.22;;
46348;SDS011;32057;47.830;19.046;2022-12-28T10:08:19;8.57;;;4.72;;
46348;SDS011;32057;47.830;19.046;2022-12-28T10:10:45;7.38;;;4.90;;
46348;SDS011;32057;47.830;19.046;2022-12-28T10:13:19;5.85;;;5.18;;
46348;SDS011;32057;47.830;19.046;2022-12-28T10:15:48;7.50;;;4.45;;
46348;SDS011;32057;47.830;19.046;2022-12-28T10:18:15;7.15;;;4.95;;
46348;SDS011;32057;47.830;19.046;2022-12-28T10:20:47;7.47;;;3.85;;
46348;SDS011;32057;47.830;19.046;2022-12-28T10:23:15;5.07;;;3.72;;
46348;SDS011;32057;47.830;19.046;2022-12-28T10:25:43;5.95;;;3.97;;
46348;SDS011;32057;47.830;19.046;2022-12-28T10:28:10;5.53;;;4.05;;
46348;SDS011;32057;47.830;19.046;2022-12-28T10:30:44;4.63;;;4.22;;
46348;SDS011;32057;47.830;19.046;2022-12-28T10:33:29;14.52;;;6.72;;
46348;SDS011;32057;47.830;19.046;2022-12-28T10:35:55;6.43;;;4.25;;
46348;SDS011;32057;47.830;19.046;2022-12-28T10:38:30;5.93;;;4.35;;
46348;SDS011;32057;47.830;19.046;2022-12-28T10:43:40;4.93;;;3.65;;
46348;SDS011;32057;47.830;19.046;2022-12-28T10:46:23;5.75;;;4.85;;
46348;SDS011;32057;47.830;19.046;2022-12-28T10:48:53;5.75;;;4.03;;
46348;SDS011;32057;47.830;19.046;2022-12-28T10:51:22;3.25;;;2.95;;
46348;SDS011;32057;47.830;19.046;2022-12-28T10:53:52;6.68;;;3.90;;
46348;SDS011;32057;47.830;19.046;2022-12-28T10:58:50;5.00;;;3.90;;
46348;SDS011;32057;47.830;19.046;2022-12-28T11:01:22;9.88;;;5.05;;
46348;SDS011;32057;47.830;19.046;2022-12-28T11:06:23;10.30;;;4.20;;
46348;SDS011;32057;47.830;19.046;2022-12-28T11:11:50;6.22;;;3.80;;
46348;SDS011;32057;47.830;19.046;2022-12-28T11:16:48;5.43;;;4.55;;
46348;SDS011;32057;47.830;19.046;2022-12-28T11:19:14;5.60;;;3.92;;
46348;SDS011;32057;47.830;19.046;2022-12-28T11:21:41;8.60;;;5.20;;
46348;SDS011;32057;47.830;19.046;2022-12-28T11:24:14;5.68;;;4.13;;
46348;SDS011;32057;47.830;19.046;2022-12-28T11:26:42;6.47;;;4.85;;
46348;SDS011;32057;47.830;19.046;2022-12-28T11:29:13;6.15;;;5.50;;
46348;SDS011;32057;47.830;19.046;2022-12-28T11:32:02;10.60;;;4.28;;
46348;SDS011;32057;47.830;19.046;2022-12-28T11:34:29;9.07;;;5.75;;
46348;SDS011;32057;47.830;19.046;2022-12-28T11:36:55;5.35;;;4.20;;
46348;SDS011;32057;47.830;19.046;2022-12-28T11:41:56;8.75;;;4.65;;
46348;SDS011;32057;47.830;19.046;2022-12-28T11:46:57;12.15;;;4.80;;
46348;SDS011;32057;47.830;19.046;2022-12-28T11:50:38;5.45;;;3.97;;
46348;SDS011;32057;47.830;19.046;2022-12-28T11:53:04;6.55;;;4.60;;
46348;SDS011;32057;47.830;19.046;2022-12-28T11:55:46;9.15;;;5.82;;
46348;SDS011;32057;47.830;19.046;2022-12-28T11:58:32;8.43;;;5.15;;
46348;SDS011;32057;47.830;19.046;2022-12-28T12:00:58;8.30;;;4.03;;
46348;SDS011;32057;47.830;19.046;2022-12-28T12:11:57;7.68;;;5.45;;
46348;SDS011;32057;47.830;19.046;2022-12-28T12:14:40;6.07;;;5.40;;
46348;SDS011;32057;47.830;19.046;2022-12-28T12:17:22;6.78;;;4.90;;
46348;SDS011;32057;47.830;19.046;2022-12-28T12:20:04;6.60;;;5.10;;
46348;SDS011;32057;47.830;19.046;2022-12-28T12:22:50;7.93;;;4.85;;
46348;SDS011;32057;47.830;19.046;2022-12-28T12:25:41;7.60;;;5.45;;
46348;SDS011;32057;47.830;19.046;2022-12-28T12:30:52;7.45;;;5.47;;
46348;SDS011;32057;47.830;19.046;2022-12-28T12:33:27;8.35;;;5.95;;
46348;SDS011;32057;47.830;19.046;2022-12-28T12:36:04;6.68;;;4.40;;
46348;SDS011;32057;47.830;19.046;2022-12-28T12:41:34;7.53;;;4.93;;
46348;SDS011;32057;47.830;19.046;2022-12-28T12:50:11;6.88;;;4.70;;
46348;SDS011;32057;47.830;19.046;2022-12-28T13:04:06;8.38;;;6.13;;
46348;SDS011;32057;47.830;19.046;2022-12-28T13:06:38;6.22;;;4.70;;
46348;SDS011;32057;47.830;19.046;2022-12-28T13:09:04;6.88;;;4.32;;
46348;SDS011;32057;47.830;19.046;2022-12-28T13:11:35;9.80;;;5.88;;
46348;SDS011;32057;47.830;19.046;2022-12-28T13:14:03;7.97;;;5.50;;
46348;SDS011;32057;47.830;19.046;2022-12-28T13:16:29;8.23;;;5.78;;
46348;SDS011;32057;47.830;19.046;2022-12-28T13:19:03;9.45;;;4.70;;
46348;SDS011;32057;47.830;19.046;2022-12-28T13:21:40;7.60;;;5.13;;
46348;SDS011;32057;47.830;19.046;2022-12-28T13:24:18;6.07;;;4.88;;
46348;SDS011;32057;47.830;19.046;2022-12-28T13:26:53;10.63;;;5.80;;
46348;SDS011;32057;47.830;19.046;2022-12-28T13:29:20;13.48;;;4.32;;
46348;SDS011;32057;47.830;19.046;2022-12-28T13:31:47;8.07;;;4.97;;
46348;SDS011;32057;47.830;19.046;2022-12-28T13:34:24;5.60;;;3.92;;
46348;SDS011;32057;47.830;19.046;2022-12-28T13:39:22;13.48;;;5.35;;
46348;SDS011;32057;47.830;19.046;2022-12-28T13:49:34;4.88;;;4.05;;
46348;SDS011;32057;47.830;19.046;2022-12-28T13:52:09;8.20;;;3.33;;
46348;SDS011;32057;47.830;19.046;2022-12-28T13:54:39;4.57;;;3.08;;
46348;SDS011;32057;47.830;19.046;2022-12-28T13:57:10;5.53;;;3.63;;
46348;SDS011;32057;47.830;19.046;2022-12-28T13:59:39;3.55;;;2.75;;
46348;SDS011;32057;47.830;19.046;2022-12-28T14:02:04;7.80;;;3.30;;
46348;SDS011;32057;47.830;19.046;2022-12-28T14:04:30;7.82;;;3.45;;
46348;SDS011;32057;47.830;19.046;2022-12-28T14:06:56;5.43;;;3.42;;
46348;SDS011;32057;47.830;19.046;2022-12-28T14:09:21;4.07;;;2.65;;
46348;SDS011;32057;47.830;19.046;2022-12-28T14:11:47;2.78;;;2.50;;
46348;SDS011;32057;47.830;19.046;2022-12-28T14:14:14;4.28;;;3.17;;
46348;SDS011;32057;47.830;19.046;2022-12-28T14:16:40;2.17;;;1.77;;
46348;SDS011;32057;47.830;19.046;2022-12-28T14:19:06;4.32;;;2.42;;
46348;SDS011;32057;47.830;19.046;2022-12-28T14:21:34;2.90;;;2.60;;
46348;SDS011;32057;47.830;19.046;2022-12-28T14:24:09;3.63;;;1.92;;
46348;SDS011;32057;47.830;19.046;2022-12-28T14:26:37;3.05;;;2.55;;
46348;SDS011;32057;47.830;19.046;2022-12-28T14:29:12;3.83;;;2.60;;
46348;SDS011;32057;47.830;19.046;2022-12-28T14:31:42;2.88;;;2.60;;
46348;SDS011;32057;47.830;19.046;2022-12-28T14:34:15;2.83;;;2.30;;
46348;SDS011;32057;47.830;19.046;2022-12-28T14:36:47;4.05;;;2.70;;
46348;SDS011;32057;47.830;19.046;2022-12-28T14:39:33;3.03;;;2.28;;
46348;SDS011;32057;47.830;19.046;2022-12-28T14:42:02;7.53;;;3.65;;
46348;SDS011;32057;47.830;19.046;2022-12-28T14:44:36;2.83;;;2.60;;
46348;SDS011;32057;47.830;19.046;2022-12-28T14:49:58;3.08;;;2.17;;
46348;SDS011;32057;47.830;19.046;2022-12-28T14:52:34;3.70;;;3.38;;
46348;SDS011;32057;47.830;19.046;2022-12-28T14:55:26;3.45;;;2.30;;
46348;SDS011;32057;47.830;19.046;2022-12-28T14:57:56;5.20;;;2.83;;
46348;SDS011;32057;47.830;19.046;2022-12-28T15:00:31;6.03;;;3.47;;
46348;SDS011;32057;47.830;19.046;2022-12-28T15:03:20;3.53;;;3.03;;
46348;SDS011;32057;47.830;19.046;2022-12-28T15:05:50;2.72;;;1.95;;
46348;SDS011;32057;47.830;19.046;2022-12-28T15:08:16;5.88;;;2.88;;
46348;SDS011;32057;47.830;19.046;2022-12-28T15:10:45;2.50;;;2.30;;
46348;SDS011;32057;47.830;19.046;2022-12-28T15:13:14;2.90;;;2.47;;
46348;SDS011;32057;47.830;19.046;2022-12-28T15:15:40;3.17;;;2.13;;
46348;SDS011;32057;47.830;19.046;2022-12-28T15:18:05;2.55;;;2.20;;
46348;SDS011;32057;47.830;19.046;2022-12-28T15:20:31;15.25;;;2.70;;
46348;SDS011;32057;47.830;19.046;2022-12-28T15:22:56;2.90;;;2.42;;
46348;SDS011;32057;47.830;19.046;2022-12-28T15:25:21;6.30;;;3.05;;
46348;SDS011;32057;47.830;19.046;2022-12-28T15:27:47;4.15;;;3.60;;
46348;SDS011;32057;47.830;19.046;2022-12-28T15:30:14;2.65;;;2.08;;
46348;SDS011;32057;47.830;19.046;2022-12-28T15:32:39;4.65;;;2.17;;
46348;SDS011;32057;47.830;19.046;2022-12-28T15:35:05;3.03;;;2.45;;
46348;SDS011;32057;47.830;19.046;2022-12-28T15:37:30;7.00;;;3.47;;
46348;SDS011;32057;47.830;19.046;2022-12-28T15:39:56;2.22;;;2.03;;
46348;SDS011;32057;47.830;19.046;2022-12-28T15:42:21;3.38;;;1.52;;
46348;SDS011;32057;47.830;19.046;2022-12-28T15:44:47;2.38;;;1.52;;
46348;SDS011;32057;47.830;19.046;2022-12-28T15:47:15;3.78;;;2.35;;
46348;SDS011;32057;47.830;19.046;2022-12-28T15:49:40;7.63;;;2.38;;
46348;SDS011;32057;47.830;19.046;2022-12-28T15:52:05;3.63;;;2.47;;
46348;SDS011;32057;47.830;19.046;2022-12-28T15:54:31;4.20;;;2.45;;
46348;SDS011;32057;47.830;19.046;2022-12-28T15:56:56;1.98;;;1.80;;
46348;SDS011;32057;47.830;19.046;2022-12-28T15:59:22;2.22;;;1.90;;
46348;SDS011;32057;47.830;19.046;2022-12-28T16:01:47;1.63;;;1.27;;
46348;SDS011;32057;47.830;19.046;2022-12-28T16:04:13;3.92;;;2.10;;
46348;SDS011;32057;47.830;19.046;2022-12-28T16:06:38;3.53;;;2.38;;
46348;SDS011;32057;47.830;19.046;2022-12-28T16:09:04;4.07;;;2.03;;
46348;SDS011;32057;47.830;19.046;2022-12-28T16:11:30;3.58;;;2.25;;
46348;SDS011;32057;47.830;19.046;2022-12-28T16:14:00;2.78;;;1.83;;
46348;SDS011;32057;47.830;19.046;2022-12-28T16:16:27;3.25;;;2.30;;
46348;SDS011;32057;47.830;19.046;2022-12-28T16:18:55;1.85;;;1.55;;
46348;SDS011;32057;47.830;19.046;2022-12-28T16:21:22;3.80;;;1.35;;
46348;SDS011;32057;47.830;19.046;2022-12-28T16:23:50;1.65;;;1.55;;
46348;SDS011;32057;47.830;19.046;2022-12-28T16:26:15;2.72;;;1.77;;
46348;SDS011;32057;47.830;19.046;2022-12-28T16:28:41;2.47;;;1.27;;